Terminal Aerodrome Forecast
Issued by NWS

Home | Current Version | Previous Version | Text Only | Print | Product List | Glossary On
Versions: 1 2 3 4 5 6 7 8 9 10 11 12 13 14 15 16 17 18 19
000
FTUS46 KMTR 221100
TAFMRY
TAF
KMRY 221131Z 2212/2312 00000KT P6SM VCSH OVC019
     FM221600 32003KT P6SM SCT015 BKN200
     FM230400 24006KT P6SM BKN015
     FM230600 24004KT P6SM OVC006=

USA.gov is the U.S. government's official web portal to all federal, state and local government web resources and services.